Tawakoni's Hourly Summary for Sunday, July 8, 2018
Hour Temp
(f)
RH
(%)
Solar Rad.
(MJ/m2)
Rainfall
(in)
Wind
(mph)
7/8/2018 12:00 AM 79 67 0 0 0.02
7/8/2018 1:00 AM 78 68 0 0 0
7/8/2018 2:00 AM 76 73 0 0 0
7/8/2018 3:00 AM 73 78 0 0 0
7/8/2018 4:00 AM 72 85 0 0 0
7/8/2018 5:00 AM 71 89 0 0 0
7/8/2018 6:00 AM 72 88 0 0 0
7/8/2018 7:00 AM 73 88 0.05 0 0
7/8/2018 8:00 AM 75 80 0.42 0 0
7/8/2018 9:00 AM 78 72 0.99 0 0
7/8/2018 10:00 AM 81 64 1.66 0 0
7/8/2018 11:00 AM 83 58 2.15 0 0
7/8/2018 12:00 PM 85 50 2.68 0 0
7/8/2018 1:00 PM 87 45 2.95 0 0
7/8/2018 2:00 PM 89 43 3.19 0 0
7/8/2018 3:00 PM 90 39 3.13 0 0
7/8/2018 4:00 PM 91 34 2.35 0 0
7/8/2018 5:00 PM 90 36 2.19 0 0
7/8/2018 6:00 PM 90 43 1.78 0 0
7/8/2018 7:00 PM 89 47 1.2 0 0
7/8/2018 8:00 PM 86 50 0.56 0 0
7/8/2018 9:00 PM 84 52 0.07 0 0
7/8/2018 10:00 PM 81 59 0 0 0
7/8/2018 11:00 PM 78 66 0 0 0
Data Summary 81 61 25.37 0.00 0.00